Fontanet, Indiana
Current Conditions -  °F | °C
As of 1:53 PM on Tuesday 21 Oct 2014 (Local Time) from KHUF Reporting Station
Overcast Overcast  
Wind Chill: 57°   Ceiling: 4200
Heat Index: 57°   Visibility: 10mi
Dew Point: 41°   Wind: 6mph
Humidity: 55%   Direction: 330°NNW
Pressure: 30.12"   Gusts: NA
Location:  39.58°N, 87.24°W
Report Text: KHUF 211753Z 33005KT 10SM BKN042 OVC049 14/05 A3012 RMK AO2 SLP199 T01390050 10144 20094 50004 $
Loading
Personal Weather Stations






























Interactive Weather Map
Tropical Storm Tracking
New forecast layout! Learn more

10-Day Weather Forecast

Advertisements
Track Severe Weather on mobile